Paw Paw, Michigan
Current Conditions -  °F | °C
As of 7:53 AM on Saturday 25 Oct 2014 (Local Time) from KAZO Reporting Station
Haze Haze  
Wind Chill: 57°   Ceiling: 1800
Heat Index: 57°   Visibility: 6mi
Dew Point: 52°   Wind: 8mph
Humidity: 83%   Direction: 230°SW
Pressure: 29.87"   Gusts: NA
Location:  42.22°N, 85.89°W
Report Text: KAZO 251153Z 23007KT 6SM HZ BKN018 14/11 A2987 RMK AO2 SLP116 T01390111 10139 20094 58001
Loading
Personal Weather Stations






























Interactive Weather Map
Tropical Storm Tracking
New forecast layout! Learn more

10-Day Weather Forecast

Advertisements
Track Severe Weather on mobile